ADDS METAR Data INFO
IDs: Format: Raw Decoded Include TAF

Data at: 1335 UTC 19 Jul 2018

KLJF 191315Z AUTO 15004KT 4SM -TSRA BKN008 OVC016 21/21 A2981 RMK AO2 LTG DSNT SE AND SW
KLJF 191255Z AUTO 12008KT 5SM -RA OVC014 21/21 A2981 RMK AO2 LTG DSNT S THRU W
KLJF 191235Z AUTO 14005KT 7SM -RA BKN014 OVC021 21/21 A2982 RMK AO2 LTG DSNT S THRU NW
KLJF 191215Z AUTO 13006KT 10SM TS SCT021 SCT046 21/21 A2982 RMK AO2 LTG DSNT S AND SW
KLJF 191155Z AUTO 11006KT 10SM -DZ SCT019 SCT095 21/21 A2981 RMK AO2 LTG DSNT S THRU W
KLJF 191135Z AUTO 12006KT 10SM RA SCT013 SCT019 BKN095 20/20 A2982 RMK AO2 LTG DSNT SW
KLJF 191115Z AUTO 14005KT 7SM RA SCT018 SCT039 BKN050 20/19 A2983 RMK AO2 LTG DSNT S AND SW
KLJF 191055Z AUTO 14006KT 10SM -RA SCT020 SCT033 BKN050 21/19 A2984 RMK AO2
KLJF 191035Z AUTO 14005KT 10SM SCT055 SCT095 21/18 A2984 RMK AO2 LTG DSNT S AND W
KLJF 191015Z AUTO 12008KT 10SM SCT055 21/18 A2985 RMK AO2 LTG DSNT W
KLJF 190955Z AUTO 13008KT 10SM SCT055 BKN075 21/18 A2986 RMK AO2
KLJF 190935Z AUTO 13008KT 10SM CLR 21/18 A2986 RMK AO2
KLJF 190915Z AUTO 12007KT 10SM SCT070 21/18 A2986 RMK AO2
KLJF 190855Z AUTO 12006KT 10SM SCT070 21/18 A2987 RMK AO2
KLJF 190835Z AUTO 12007KT 10SM SCT070 BKN090 21/18 A2988 RMK AO2
KLJF 190815Z AUTO 13006KT 10SM SCT060 BKN090 21/18 A2989 RMK AO2
KLJF 190756Z AUTO 13008KT 10SM SCT060 120 21/18 A2989 RMK AO2
KLJF 190735Z AUTO 13006KT 10SM SCT120 20/18 A2990 RMK AO2 LTG DSNT W
KLJF 190715Z AUTO 12005KT 10SM CLR 19/18 A2990 RMK AO2
KLJF 190655Z AUTO 12005KT 10SM CLR 20/18 A2991 RMK AO2
KLJF 190635Z AUTO 13005KT 10SM CLR 19/18 A2992 RMK AO2
KLJF 190615Z AUTO 13005KT 10SM CLR 20/18 A2992 RMK AO2
KLJF 190555Z AUTO 13005KT 10SM CLR 21/18 A2993 RMK AO2
KLJF 190535Z AUTO 12007KT 10SM CLR 21/18 A2993 RMK AO2
KLJF 190515Z AUTO 13006KT 10SM CLR 21/18 A2994 RMK AO2
KLJF 190455Z AUTO 13006KT 10SM CLR 21/18 A2994 RMK AO2
KLJF 190435Z AUTO 13005KT 10SM CLR 22/19 A2995 RMK AO2
KLJF 190415Z AUTO 13005KT 10SM CLR 22/19 A2995 RMK AO2
KLJF 190355Z AUTO 13005KT 10SM CLR 21/19 A2995 RMK AO2
KLJF 190335Z AUTO 12005KT 10SM -DZ CLR 21/20 A2996 RMK AO2
KLJF 190315Z AUTO 11004KT 10SM CLR 21/20 A2996 RMK AO2
KLJF 190255Z AUTO 11004KT 10SM CLR 22/19 A2996 RMK AO2
KLJF 190235Z AUTO 10005KT 10SM CLR 21/19 A2996 RMK AO2
KLJF 190215Z AUTO 11005KT 10SM CLR 22/19 A2996 RMK AO2
KLJF 190155Z AUTO 11004KT 10SM CLR 22/19 A2996 RMK AO2
KLJF 190135Z AUTO 12004KT 10SM CLR 23/19 A2996 RMK AO2
KLJF 190115Z AUTO 12005KT 10SM CLR 25/20 A2997 RMK AO2
KLJF 190055Z AUTO 11007KT 10SM CLR 26/19 A2997 RMK AO2
KLJF 190035Z AUTO 11007KT 10SM CLR 26/19 A2997 RMK AO2
KLJF 190015Z AUTO 12007KT 10SM CLR 26/19 A2998 RMK AO2
KLJF 182355Z AUTO 12007KT 10SM CLR 27/20 A2998 RMK AO2
KLJF 182335Z AUTO 13007KT 10SM CLR 27/19 A2998 RMK AO2
KLJF 182315Z AUTO 12007KT 10SM CLR 27/19 A2999 RMK AO2
KLJF 182255Z AUTO 12008KT 10SM CLR 27/19 A2999 RMK AO2
KLJF 182235Z AUTO 13005KT 10SM CLR 26/19 A3000 RMK AO2
KLJF 182215Z AUTO 12007KT 10SM CLR 27/19 A3001 RMK AO2
KLJF 182155Z AUTO 13005KT 10SM CLR 27/19 A3001 RMK AO2
KLJF 182135Z AUTO 12006KT 10SM CLR 28/19 A3002 RMK AO2
KLJF 182115Z AUTO 12008KT 10SM CLR 27/19 A3002 RMK AO2
KLJF 182055Z AUTO 14006KT 10SM CLR 28/19 A3003 RMK AO2
KLJF 182035Z AUTO 15004KT 10SM CLR 28/19 A3004 RMK AO2
KLJF 182015Z AUTO 14006KT 10SM CLR 27/19 A3004 RMK AO2
KLJF 181955Z AUTO 13009KT 10SM CLR 27/19 A3005 RMK AO2
KLJF 181935Z AUTO 13006KT 10SM CLR 27/19 A3005 RMK AO2
KLJF 181915Z AUTO 14006KT 10SM CLR 26/18 A3006 RMK AO2
KLJF 181855Z AUTO 14004KT 10SM CLR 26/18 A3006 RMK AO2
KLJF 181835Z AUTO 15004KT 10SM CLR 26/18 A3007 RMK AO2
KLJF 181815Z AUTO 15004KT 10SM CLR 26/18 A3007 RMK AO2
KLJF 181755Z AUTO 15004KT 10SM CLR 27/18 A3007 RMK AO2
KLJF 181735Z AUTO 15004KT 10SM CLR 26/18 A3008 RMK AO2
KLJF 181715Z AUTO 13006KT 10SM CLR 26/18 A3008 RMK AO2
KLJF 181655Z AUTO 13006KT 10SM CLR 26/18 A3008 RMK AO2
KLJF 181635Z AUTO 13006KT 10SM CLR 26/18 A3009 RMK AO2
KLJF 181615Z AUTO 15004KT 10SM CLR 26/18 A3009 RMK AO2
KLJF 181555Z AUTO 13006KT 10SM CLR 26/18 A3009 RMK AO2
KLJF 181535Z AUTO 13007KT 10SM CLR 25/17 A3009 RMK AO2
KLJF 181515Z AUTO 14005KT 10SM SCT050 24/18 A3010 RMK AO2
KLJF 181455Z AUTO 13007KT 10SM CLR 24/17 A3011 RMK AO2
KLJF 181435Z AUTO 14004KT 10SM CLR 23/17 A3011 RMK AO2
KLJF 181415Z AUTO 14003KT 10SM CLR 23/17 A3011 RMK AO2
KLJF 181355Z AUTO 14005KT 10SM CLR 23/17 A3012 RMK AO2
KLJF 181335Z AUTO 13003KT 10SM CLR 22/17 A3012 RMK AO2
KLJF 181315Z AUTO 14003KT 10SM CLR 21/17 A3011 RMK AO2
KLJF 181255Z AUTO 13004KT 10SM CLR 21/17 A3012 RMK AO2
KLJF 181235Z AUTO 11003KT 10SM CLR 20/17 A3012 RMK AO2
KLJF 181215Z AUTO 13005KT 10SM CLR 19/16 A3012 RMK AO2
KLJF 181155Z AUTO 13004KT 10SM SCT050 18/16 A3012 RMK AO2
KLJF 181135Z AUTO 13003KT 10SM SCT050 17/16 A3012 RMK AO2
KLJF 181115Z AUTO 13003KT 10SM CLR 17/15 A3012 RMK AO2
KLJF 181055Z AUTO 13003KT 10SM CLR 17/15 A3012 RMK AO2
KLJF 181035Z AUTO 13004KT 10SM CLR 17/15 A3012 RMK AO2
KLJF 181015Z AUTO 00000KT 10SM CLR 18/15 A3012 RMK AO2
KLJF 180955Z AUTO 14003KT 10SM SCT060 18/15 A3012 RMK AO2
KLJF 180935Z AUTO 00000KT 10SM SCT050 BKN065 19/15 A3012 RMK AO2
KLJF 180915Z AUTO 14004KT 10SM BKN050 BKN060 18/15 A3012 RMK AO2
KLJF 180855Z AUTO 14006KT 10SM SCT050 SCT060 19/14 A3012 RMK AO2
KLJF 180835Z AUTO 14005KT 10SM SCT060 SCT070 19/15 A3012 RMK AO2
KLJF 180815Z AUTO 13004KT 10SM SCT060 SCT075 18/16 A3011 RMK AO2
KLJF 180755Z AUTO 14003KT 10SM SCT060 SCT075 18/15 A3012 RMK AO2
KLJF 180735Z AUTO 13004KT 10SM CLR 18/14 A3011 RMK AO2
KLJF 180715Z AUTO 00000KT 10SM CLR 18/15 A3012 RMK AO2
KLJF 180655Z AUTO 00000KT 10SM CLR 18/15 A3011 RMK AO2
KLJF 180635Z AUTO 00000KT 10SM CLR 18/15 A3011 RMK AO2
KLJF 180615Z AUTO 00000KT 10SM CLR 18/15 A3011 RMK AO2
KLJF 180555Z AUTO 00000KT 10SM CLR 19/16 A3011 RMK AO2
KLJF 180535Z AUTO 00000KT 10SM CLR 19/16 A3012 RMK AO2
KLJF 180515Z AUTO 00000KT 10SM CLR 19/14 A3012 RMK AO2
KLJF 180455Z AUTO 00000KT 10SM CLR 19/14 A3012 RMK AO2
KLJF 180435Z AUTO 00000KT 10SM CLR 19/16 A3012 RMK AO2
KLJF 180415Z AUTO 00000KT 10SM CLR 19/16 A3011 RMK AO2
KLJF 180355Z AUTO 00000KT 10SM CLR 19/16 A3011 RMK AO2
KLJF 180335Z AUTO 00000KT 10SM CLR 20/16 A3011 RMK AO2
KLJF 180315Z AUTO 00000KT 10SM CLR 21/16 A3011 RMK AO2
KLJF 180255Z AUTO 09004KT 10SM CLR 21/16 A3012 RMK AO2
KLJF 180235Z AUTO 00000KT 10SM CLR 21/16 A3012 RMK AO2
KLJF 180215Z AUTO 00000KT 10SM CLR 22/16 A3011 RMK AO2
KLJF 180155Z AUTO 08003KT 10SM CLR 22/16 A3011 RMK AO2